createdAt,value
2023-04-21T00:00:58.471Z,29.43
2023-04-21T00:01:58.482Z,29.36
2023-04-21T00:02:58.755Z,29.41
2023-04-21T00:03:58.897Z,29.39
2023-04-21T00:04:58.836Z,29.40
2023-04-21T00:05:58.710Z,29.43
2023-04-21T00:06:58.752Z,29.39
2023-04-21T00:07:58.818Z,29.39
2023-04-21T00:08:58.954Z,29.39
2023-04-21T00:09:58.923Z,29.41
2023-04-21T00:10:58.964Z,29.37
2023-04-21T00:11:59.042Z,29.37
2023-04-21T00:12:59.062Z,29.37
2023-04-21T00:13:59.142Z,29.34
2023-04-21T00:14:59.181Z,29.34
2023-04-21T00:15:59.281Z,29.32
2023-04-21T00:16:59.304Z,29.37
2023-04-21T00:17:59.366Z,29.33
2023-04-21T00:18:59.389Z,29.32
2023-04-21T00:19:59.414Z,29.34
2023-04-21T00:20:59.453Z,29.29
2023-04-21T00:21:59.513Z,29.29
2023-04-21T00:22:59.571Z,29.32
2023-04-21T00:23:59.646Z,29.33
2023-04-21T00:24:59.702Z,29.32
2023-04-21T00:25:59.768Z,29.33
2023-04-21T00:26:59.794Z,29.32
2023-04-21T00:27:59.809Z,29.33
2023-04-21T00:28:59.904Z,29.33
2023-04-21T00:29:59.937Z,29.29
2023-04-21T00:31:00.005Z,29.30
2023-04-21T00:32:00.023Z,29.33
2023-04-21T00:33:00.115Z,29.32
2023-04-21T00:34:00.110Z,29.29
2023-04-21T00:35:00.197Z,29.26
2023-04-21T00:36:00.189Z,29.25
2023-04-21T00:37:00.279Z,29.26
2023-04-21T00:38:00.326Z,29.25
2023-04-21T00:39:00.390Z,29.26
2023-04-21T00:40:00.449Z,29.29
2023-04-21T00:41:00.465Z,29.29
2023-04-21T00:42:00.638Z,29.25
2023-04-21T00:43:00.555Z,29.26
2023-04-21T00:44:00.656Z,29.29
2023-04-21T00:45:00.696Z,29.22
2023-04-21T00:46:00.737Z,29.22
2023-04-21T00:47:00.850Z,29.25
2023-04-21T00:48:00.940Z,29.26
2023-04-21T00:49:00.879Z,29.23
2023-04-21T00:50:00.943Z,29.25
2023-04-21T00:51:00.965Z,29.19
2023-04-21T00:52:01.023Z,29.26
2023-04-21T00:53:01.080Z,29.21
2023-04-21T00:54:01.138Z,29.22
2023-04-21T00:55:01.237Z,29.22
2023-04-21T00:56:01.242Z,29.22
2023-04-21T00:57:02.841Z,29.22
2023-04-21T00:58:01.332Z,29.22
2023-04-21T00:59:01.403Z,29.18
2023-04-21T01:00:01.429Z,29.19
2023-04-21T01:01:01.499Z,29.22
2023-04-21T01:02:01.649Z,29.19
2023-04-21T01:03:01.762Z,29.19
2023-04-21T01:04:01.883Z,29.21
2023-04-21T01:05:01.688Z,29.21
2023-04-21T01:06:01.749Z,29.18
2023-04-21T01:07:01.776Z,29.18
2023-04-21T01:08:01.825Z,29.16
2023-04-21T01:09:01.914Z,29.18
2023-04-21T01:10:01.957Z,29.17
2023-04-21T01:11:01.983Z,29.15
2023-04-21T01:12:02.050Z,29.19
2023-04-21T01:13:02.116Z,29.15
2023-04-21T01:14:02.152Z,29.12
2023-04-21T01:15:02.211Z,29.18
2023-04-21T01:16:02.303Z,29.13
2023-04-21T01:17:02.410Z,29.17
2023-04-21T01:18:02.408Z,29.15
2023-04-21T01:19:02.464Z,29.14
2023-04-21T01:20:02.721Z,29.15
2023-04-21T01:21:02.562Z,29.17
2023-04-21T01:22:02.610Z,29.11
2023-04-21T01:23:02.667Z,29.11
2023-04-21T01:24:02.666Z,29.14
2023-04-21T01:25:02.754Z,29.13
2023-04-21T01:26:02.793Z,29.11
2023-04-21T01:27:02.846Z,29.04
2023-04-21T01:28:02.881Z,29.08
2023-04-21T01:29:02.977Z,29.14
2023-04-21T01:30:02.989Z,29.10
2023-04-21T01:31:03.045Z,29.11
2023-04-21T01:32:03.185Z,29.11
2023-04-21T01:33:03.261Z,29.11
2023-04-21T01:34:03.223Z,29.10
2023-04-21T01:35:03.273Z,29.07
2023-04-21T01:36:03.343Z,29.04
2023-04-21T01:37:03.844Z,29.04
2023-04-21T01:38:03.400Z,29.05
2023-04-21T01:39:03.520Z,29.08
2023-04-21T01:40:03.516Z,29.03
2023-04-21T01:41:03.591Z,29.10
2023-04-21T01:42:03.662Z,29.04
2023-04-21T01:43:03.687Z,29.06
2023-04-21T01:44:03.732Z,29.01
2023-04-21T01:45:03.762Z,29.07
2023-04-21T01:46:03.944Z,29.06
2023-04-21T01:47:03.934Z,29.02
2023-04-21T01:48:03.967Z,29.01
2023-04-21T01:49:04.019Z,29.04
2023-04-21T01:50:04.051Z,29.05
2023-04-21T01:51:04.103Z,29.01
2023-04-21T01:52:04.160Z,29.04
2023-04-21T01:53:04.234Z,29.04
2023-04-21T01:54:04.253Z,29.04
2023-04-21T01:55:04.326Z,29.06
2023-04-21T01:56:04.364Z,29.01
2023-04-21T01:57:04.423Z,29.02
2023-04-21T01:58:04.471Z,29.00
2023-04-21T01:59:04.492Z,29.01
2023-04-21T02:00:04.601Z,29.02
2023-04-21T02:01:04.633Z,29.02
2023-04-21T02:02:04.857Z,28.97
2023-04-21T02:03:04.800Z,28.98
2023-04-21T02:04:04.960Z,29.01
2023-04-21T02:05:04.828Z,28.99
2023-04-21T02:06:04.910Z,28.96
2023-04-21T02:07:04.998Z,28.96
2023-04-21T02:08:05.049Z,28.97
2023-04-21T02:09:05.093Z,29.02
2023-04-21T02:10:05.197Z,28.97
2023-04-21T02:11:05.229Z,29.00
2023-04-21T02:12:05.245Z,28.97
2023-04-21T02:13:05.323Z,29.00
2023-04-21T02:14:05.342Z,28.94
2023-04-21T02:15:05.440Z,28.98
2023-04-21T02:16:13.185Z,28.94
2023-04-21T02:17:06.480Z,28.96
2023-04-21T02:18:05.463Z,28.98
2023-04-21T02:19:05.443Z,28.96
2023-04-21T02:20:05.510Z,28.97
2023-04-21T02:21:05.440Z,28.96
2023-04-21T02:22:05.440Z,28.90
2023-04-21T02:23:05.398Z,28.97
2023-04-21T02:24:05.417Z,29.00
2023-04-21T02:25:05.420Z,28.93
2023-04-21T02:26:05.468Z,28.94
2023-04-21T02:27:05.518Z,28.91
2023-04-21T02:28:05.618Z,28.94
2023-04-21T02:29:05.629Z,28.91
2023-04-21T02:30:05.725Z,28.91
2023-04-21T02:31:05.757Z,28.93
2023-04-21T02:33:07.514Z,28.93
2023-04-21T02:34:05.775Z,28.93
2023-04-21T02:35:05.807Z,28.94
2023-04-21T02:36:05.783Z,28.94
2023-04-21T02:37:05.773Z,28.93
2023-04-21T02:38:05.769Z,28.87
2023-04-21T02:39:05.767Z,28.88
2023-04-21T02:40:05.767Z,28.89
2023-04-21T02:41:05.731Z,28.97
2023-04-21T02:42:05.751Z,28.89
2023-04-21T02:43:05.841Z,28.91
2023-04-21T02:44:05.861Z,28.91
2023-04-21T02:45:05.912Z,28.89
2023-04-21T02:46:05.995Z,28.91
2023-04-21T02:47:05.987Z,28.89
2023-04-21T02:48:06.104Z,28.87
2023-04-21T02:49:06.125Z,28.89
2023-04-21T02:50:06.170Z,28.88
2023-04-21T02:51:06.244Z,28.89
2023-04-21T02:52:06.251Z,28.85
2023-04-21T02:53:06.321Z,28.88
2023-04-21T02:54:06.360Z,28.83
2023-04-21T02:55:06.424Z,28.87
2023-04-21T02:56:06.499Z,28.82
2023-04-21T02:57:06.532Z,28.86
2023-04-21T02:58:06.598Z,28.89
2023-04-21T02:59:06.610Z,28.86
2023-04-21T03:00:06.692Z,28.85
2023-04-21T03:01:06.746Z,28.82
2023-04-21T03:02:06.828Z,28.85
2023-04-21T03:03:06.892Z,28.85
2023-04-21T03:04:07.001Z,28.78
2023-04-21T03:05:06.976Z,28.82
2023-04-21T03:06:07.002Z,28.83
2023-04-21T03:07:07.068Z,28.83
2023-04-21T03:08:07.116Z,28.78
2023-04-21T03:09:07.175Z,28.85
2023-04-21T03:10:07.223Z,28.83
2023-04-21T03:11:07.244Z,28.80
2023-04-21T03:12:07.305Z,28.80
2023-04-21T03:13:07.343Z,28.79
2023-04-21T03:14:07.421Z,28.78
2023-04-21T03:15:07.476Z,28.80
2023-04-21T03:16:07.522Z,28.75
2023-04-21T03:17:07.598Z,28.76
2023-04-21T03:18:07.742Z,28.78
2023-04-21T03:19:07.706Z,28.79
2023-04-21T03:20:07.774Z,28.78
2023-04-21T03:21:07.811Z,28.82
2023-04-21T03:22:07.867Z,28.83
2023-04-21T03:23:07.939Z,28.79
2023-04-21T03:24:07.968Z,28.79
2023-04-21T03:25:08.059Z,28.76
2023-04-21T03:26:08.083Z,28.74
2023-04-21T03:27:10.840Z,28.74
2023-04-21T03:28:08.150Z,28.78
2023-04-21T03:29:08.104Z,28.74
2023-04-21T03:30:08.096Z,28.78
2023-04-21T03:31:08.121Z,28.79
2023-04-21T03:32:08.173Z,28.73
2023-04-21T03:33:08.149Z,28.76
2023-04-21T03:34:08.104Z,28.75
2023-04-21T03:35:08.115Z,28.74
2023-04-21T03:36:08.057Z,28.72
2023-04-21T03:37:08.060Z,28.72
2023-04-21T03:38:08.071Z,28.76
2023-04-21T03:39:19.323Z,28.71
2023-04-21T03:40:09.075Z,28.74
2023-04-21T03:41:08.049Z,28.72
2023-04-21T03:42:08.028Z,28.76
2023-04-21T03:43:08.028Z,28.72
2023-04-21T03:44:08.042Z,28.73
2023-04-21T03:45:08.024Z,28.73
2023-04-21T03:46:08.070Z,28.72
2023-04-21T03:47:08.008Z,28.71
2023-04-21T03:48:08.040Z,28.71
2023-04-21T03:49:08.035Z,28.71
2023-04-21T03:50:08.067Z,28.76
2023-04-21T03:51:08.155Z,28.72
2023-04-21T03:52:08.196Z,28.69
2023-04-21T03:53:08.258Z,28.67
2023-04-21T03:54:08.309Z,28.71
2023-04-21T03:55:08.345Z,28.69
2023-04-21T03:56:08.430Z,28.69
2023-04-21T03:57:08.457Z,28.72
2023-04-21T03:58:08.505Z,28.69
2023-04-21T03:59:08.583Z,28.69
2023-04-21T04:00:08.629Z,28.69
2023-04-21T04:01:08.697Z,28.68
2023-04-21T04:02:08.830Z,28.69
2023-04-21T04:03:08.917Z,28.65
2023-04-21T04:04:08.991Z,28.68
2023-04-21T04:05:08.981Z,28.69
2023-04-21T04:06:09.003Z,28.68
2023-04-21T04:07:09.033Z,28.67
2023-04-21T04:08:09.094Z,28.65
2023-04-21T04:09:09.328Z,28.63
2023-04-21T04:10:09.225Z,28.65
2023-04-21T04:11:09.277Z,28.69
2023-04-21T04:12:11.568Z,28.65
2023-04-21T04:13:09.351Z,28.62
2023-04-21T04:14:09.445Z,28.67
2023-04-21T04:15:09.495Z,28.61
2023-04-21T04:16:09.648Z,28.67
2023-04-21T04:17:09.647Z,28.64
2023-04-21T04:18:09.765Z,28.66
2023-04-21T04:19:09.746Z,28.69
2023-04-21T04:20:09.794Z,28.63
2023-04-21T04:21:09.879Z,28.58
2023-04-21T04:22:09.954Z,28.61
2023-04-21T04:23:09.960Z,28.62
2023-04-21T04:24:10.049Z,28.62
2023-04-21T04:25:10.080Z,28.66
2023-04-21T04:26:10.148Z,28.61
2023-04-21T04:27:10.231Z,28.61
2023-04-21T04:28:10.295Z,28.59
2023-04-21T04:29:10.369Z,28.66
2023-04-21T04:30:10.423Z,28.62
2023-04-21T04:31:10.504Z,28.61
2023-04-21T04:32:10.533Z,28.62
2023-04-21T04:33:10.616Z,28.59
2023-04-21T04:34:10.656Z,28.57
2023-04-21T04:35:10.719Z,28.58
2023-04-21T04:36:10.789Z,28.57
2023-04-21T04:37:10.840Z,28.59
2023-04-21T04:38:10.906Z,28.60
2023-04-21T04:39:10.968Z,28.54
2023-04-21T04:40:11.891Z,28.58
2023-04-21T04:41:11.061Z,28.57
2023-04-21T04:42:11.192Z,28.60
2023-04-21T04:43:11.197Z,28.59
2023-04-21T04:44:11.321Z,28.59
2023-04-21T04:45:11.357Z,28.52
2023-04-21T04:46:11.426Z,28.54
2023-04-21T04:47:11.480Z,28.53
2023-04-21T04:48:11.480Z,28.58
2023-04-21T04:49:11.580Z,28.56
2023-04-21T04:50:11.641Z,28.55
2023-04-21T04:51:11.677Z,28.54
2023-04-21T04:52:11.755Z,28.54
2023-04-21T04:53:11.794Z,28.54
2023-04-21T04:54:11.883Z,28.51
2023-04-21T04:55:11.930Z,28.52
2023-04-21T04:56:12.008Z,28.53
2023-04-21T04:57:12.034Z,28.48
2023-04-21T04:58:12.101Z,28.56
2023-04-21T04:59:12.152Z,28.50
2023-04-21T05:00:12.217Z,28.51
2023-04-21T05:01:12.274Z,28.52
2023-04-21T05:02:12.386Z,28.53
2023-04-21T05:03:12.470Z,28.47
2023-04-21T05:04:12.536Z,28.51
2023-04-21T05:05:12.605Z,28.45
2023-04-21T05:06:12.585Z,28.47
2023-04-21T05:07:12.638Z,28.43
2023-04-21T05:08:12.684Z,28.49
2023-04-21T05:09:12.771Z,28.45
2023-04-21T05:10:12.825Z,28.47
2023-04-21T05:11:12.860Z,28.41
2023-04-21T05:12:12.932Z,28.50
2023-04-21T05:13:12.995Z,28.47
2023-04-21T05:14:13.031Z,28.42
2023-04-21T05:15:13.106Z,28.39
2023-04-21T05:16:13.149Z,28.47
2023-04-21T05:17:13.229Z,28.43
2023-04-21T05:18:13.241Z,28.45
2023-04-21T05:19:13.340Z,28.46
2023-04-21T05:20:13.385Z,28.41
2023-04-21T05:21:13.451Z,28.40
2023-04-21T05:22:13.492Z,28.42
2023-04-21T05:23:13.611Z,28.43
2023-04-21T05:24:13.604Z,28.41
2023-04-21T05:25:13.694Z,28.41
2023-04-21T05:26:13.743Z,28.42
2023-04-21T05:27:13.827Z,28.38
2023-04-21T05:28:13.880Z,28.40
2023-04-21T05:29:14.003Z,28.40
2023-04-21T05:30:14.021Z,28.36
2023-04-21T05:31:14.036Z,28.36
2023-04-21T05:32:14.147Z,28.40
2023-04-21T05:33:14.184Z,28.38
2023-04-21T05:34:14.224Z,28.42
2023-04-21T05:35:14.275Z,28.41
2023-04-21T05:36:14.350Z,28.39
2023-04-21T05:37:14.410Z,28.42
2023-04-21T05:38:14.481Z,28.62
2023-04-21T05:39:14.533Z,28.58
2023-04-21T05:40:14.589Z,28.62
2023-04-21T05:41:14.698Z,28.67
2023-04-21T05:42:14.949Z,29.21
2023-04-21T05:43:14.776Z,29.06
2023-04-21T05:44:14.804Z,29.11
2023-04-21T05:45:14.918Z,28.04
2023-04-21T05:46:15.027Z,27.94
2023-04-21T05:47:14.917Z,27.44
2023-04-21T05:48:15.009Z,27.78
2023-04-21T05:49:15.019Z,28.06
2023-04-21T05:50:15.027Z,27.91
2023-04-21T05:51:14.994Z,28.57
2023-04-21T05:52:15.497Z,28.44
2023-04-21T05:53:15.039Z,28.38
2023-04-21T05:54:15.088Z,28.42
2023-04-21T05:55:15.155Z,28.68
2023-04-21T05:56:15.311Z,28.79
2023-04-21T05:57:15.451Z,28.71
2023-04-21T05:58:15.342Z,28.91
2023-04-21T05:59:15.305Z,28.75
2023-04-21T06:00:15.403Z,28.96
2023-04-21T06:01:15.370Z,28.90
2023-04-21T06:02:15.437Z,29.04
2023-04-21T06:03:15.399Z,29.05
2023-04-21T06:04:15.653Z,29.07
2023-04-21T06:05:15.444Z,29.17
2023-04-21T06:06:15.941Z,29.37
2023-04-21T06:07:16.916Z,29.55
2023-04-21T06:08:15.425Z,29.55
2023-04-21T06:09:15.425Z,29.47
2023-04-21T06:10:15.429Z,29.44
2023-04-21T06:11:15.398Z,29.55
2023-04-21T06:12:15.403Z,29.97
2023-04-21T06:13:15.379Z,29.93
2023-04-21T06:14:15.367Z,29.82
2023-04-21T06:15:15.371Z,29.92
2023-04-21T06:16:15.406Z,29.85
2023-04-21T06:17:15.352Z,29.93
2023-04-21T06:18:15.389Z,30.10
2023-04-21T06:19:15.333Z,30.14
2023-04-21T06:20:15.322Z,30.18
2023-04-21T06:21:15.317Z,30.18
2023-04-21T06:22:15.320Z,30.34
2023-04-21T06:23:15.311Z,30.22
2023-04-21T06:24:15.301Z,30.46
2023-04-21T06:25:15.332Z,30.44
2023-04-21T06:26:15.314Z,30.44
2023-04-21T06:27:15.427Z,30.53
2023-04-21T06:28:15.301Z,30.64
2023-04-21T06:29:15.301Z,30.64
2023-04-21T06:30:15.300Z,30.72
2023-04-21T06:31:15.517Z,30.54
2023-04-21T06:32:15.250Z,30.54
2023-04-21T06:33:15.222Z,30.63
2023-04-21T06:34:15.298Z,30.80
2023-04-21T06:35:15.350Z,30.80
2023-04-21T06:36:16.890Z,30.84
2023-04-21T06:37:15.418Z,30.85
2023-04-21T06:38:15.233Z,30.89
2023-04-21T06:39:15.202Z,30.94
2023-04-21T06:40:15.205Z,31.09
2023-04-21T06:41:15.189Z,31.11
2023-04-21T06:42:15.225Z,31.12
2023-04-21T06:43:15.205Z,31.06
2023-04-21T06:44:15.173Z,31.14
2023-04-21T06:45:15.171Z,31.28
2023-04-21T06:46:15.135Z,31.36
2023-04-21T06:47:15.582Z,31.22
2023-04-21T06:48:15.199Z,32.31
2023-04-21T06:49:15.158Z,32.95
2023-04-21T06:50:15.160Z,32.26
2023-04-21T06:51:15.102Z,32.09
2023-04-21T06:52:15.113Z,33.12
2023-04-21T06:53:15.133Z,32.54
2023-04-21T06:54:15.118Z,32.35
2023-04-21T06:55:15.132Z,32.68
2023-04-21T06:56:15.111Z,32.45
2023-04-21T06:57:15.470Z,32.43
2023-04-21T06:58:15.078Z,32.35
2023-04-21T06:59:15.104Z,32.43
2023-04-21T07:00:15.054Z,32.56
2023-04-21T07:01:15.089Z,32.43
2023-04-21T07:02:15.537Z,32.30
2023-04-21T07:03:15.124Z,32.21
2023-04-21T07:04:15.157Z,32.08
2023-04-21T07:05:15.041Z,31.93
2023-04-21T07:06:15.055Z,31.86
2023-04-21T07:07:15.052Z,31.79
2023-04-21T07:08:15.011Z,31.65
2023-04-21T07:09:15.008Z,31.67
2023-04-21T07:10:15.004Z,31.61
2023-04-21T07:11:14.979Z,31.62
2023-04-21T07:12:15.473Z,31.50
2023-04-21T07:13:14.994Z,31.51
2023-04-21T07:14:14.986Z,31.39
2023-04-21T07:15:14.972Z,31.50
2023-04-21T07:16:14.994Z,31.55
2023-04-21T07:17:14.978Z,31.49
2023-04-21T07:18:15.001Z,31.27
2023-04-21T07:19:14.955Z,31.22
2023-04-21T07:20:14.904Z,31.14
2023-04-21T07:21:14.913Z,31.04
2023-04-21T07:22:14.966Z,30.80
2023-04-21T07:23:14.922Z,30.90
2023-04-21T07:24:14.908Z,30.97
2023-04-21T07:25:14.900Z,30.97
2023-04-21T07:26:14.891Z,30.82
2023-04-21T07:27:14.916Z,30.77
2023-04-21T07:28:14.890Z,31.29
2023-04-21T07:29:14.947Z,31.89
2023-04-21T07:30:15.067Z,31.44
2023-04-21T07:31:15.192Z,31.63
2023-04-21T07:32:15.137Z,31.86
2023-04-21T07:33:15.206Z,31.79
2023-04-21T07:34:15.262Z,31.83
2023-04-21T07:35:15.330Z,31.81
2023-04-21T07:36:15.380Z,31.89
2023-04-21T07:37:15.384Z,31.97
2023-04-21T07:38:15.425Z,32.08
2023-04-21T07:39:15.477Z,32.08
2023-04-21T07:40:15.598Z,32.16
2023-04-21T07:41:15.603Z,32.20
2023-04-21T07:42:16.006Z,32.38
2023-04-21T07:43:15.570Z,33.00
2023-04-21T07:44:15.608Z,32.67
2023-04-21T07:45:15.613Z,32.58
2023-04-21T07:46:15.859Z,32.68
2023-04-21T07:47:15.995Z,32.66
2023-04-21T07:48:15.759Z,32.59
2023-04-21T07:49:15.717Z,32.11
2023-04-21T07:50:15.768Z,32.21
2023-04-21T07:51:15.814Z,32.23
2023-04-21T07:52:15.843Z,32.35
2023-04-21T07:53:15.904Z,32.10
2023-04-21T07:54:15.914Z,31.90
2023-04-21T07:55:15.938Z,32.06
2023-04-21T07:56:15.966Z,31.99
2023-04-21T07:57:16.004Z,31.67
2023-04-21T07:58:16.043Z,31.97
2023-04-21T07:59:16.089Z,31.72
2023-04-21T08:00:16.147Z,31.63
2023-04-21T08:01:16.153Z,31.79
2023-04-21T08:02:16.262Z,31.98
2023-04-21T08:03:16.293Z,31.74
2023-04-21T08:04:16.376Z,31.97
2023-04-21T08:05:16.378Z,31.87
2023-04-21T08:06:16.503Z,31.78
2023-04-21T08:07:16.792Z,32.05
2023-04-21T08:08:16.428Z,31.74
2023-04-21T08:09:16.495Z,31.71
2023-04-21T08:10:16.512Z,31.72
2023-04-21T08:11:16.563Z,31.81
2023-04-21T08:12:16.585Z,31.60
2023-04-21T08:13:16.594Z,31.72
2023-04-21T08:14:16.647Z,31.53
2023-04-21T08:15:16.695Z,31.78
2023-04-21T08:16:16.823Z,31.79
2023-04-21T08:17:16.760Z,31.70
2023-04-21T08:18:17.169Z,31.70
2023-04-21T08:19:16.924Z,31.81
2023-04-21T08:20:16.841Z,31.79
2023-04-21T08:21:16.895Z,31.97
2023-04-21T08:22:16.937Z,31.56
2023-04-21T08:23:16.982Z,31.88
2023-04-21T08:24:17.115Z,31.79
2023-04-21T08:25:16.986Z,31.67
2023-04-21T08:26:17.024Z,31.88
2023-04-21T08:27:17.148Z,31.78
2023-04-21T08:28:17.097Z,32.04
2023-04-21T08:29:17.148Z,31.84
2023-04-21T08:30:17.151Z,31.81
2023-04-21T08:31:17.247Z,31.84
2023-04-21T08:32:17.330Z,31.63
2023-04-21T08:33:17.266Z,31.65
2023-04-21T08:34:17.383Z,31.71
2023-04-21T08:35:17.335Z,31.71
2023-04-21T08:36:28.471Z,31.81
2023-04-21T08:37:18.445Z,31.86
2023-04-21T08:38:17.415Z,32.15
2023-04-21T08:39:17.598Z,32.33
2023-04-21T08:40:17.306Z,32.47
2023-04-21T08:41:17.425Z,32.49
2023-04-21T08:42:17.398Z,32.52
2023-04-21T08:43:17.334Z,32.92
2023-04-21T08:44:17.574Z,32.88
2023-04-21T08:45:17.309Z,33.03
2023-04-21T08:46:17.414Z,33.13
2023-04-21T08:47:17.485Z,33.09
2023-04-21T08:48:17.288Z,33.12
2023-04-21T08:49:19.284Z,33.07
2023-04-21T08:50:17.278Z,33.09
2023-04-21T08:51:17.264Z,33.15
2023-04-21T08:52:17.286Z,33.38
2023-04-21T08:53:17.276Z,33.47
2023-04-21T08:54:17.288Z,33.69
2023-04-21T08:55:17.285Z,33.84
2023-04-21T08:56:17.296Z,33.78
2023-04-21T08:57:17.582Z,33.78
2023-04-21T08:58:17.377Z,33.86
2023-04-21T08:59:17.486Z,33.92
2023-04-21T09:00:17.347Z,33.95
2023-04-21T09:01:17.504Z,33.98
2023-04-21T09:02:17.537Z,34.06
2023-04-21T09:03:25.607Z,34.15
2023-04-21T09:04:18.856Z,34.11
2023-04-21T09:05:17.639Z,34.25
2023-04-21T09:06:18.116Z,34.28
2023-04-21T09:07:17.534Z,34.40
2023-04-21T09:08:17.535Z,34.54
2023-04-21T09:09:17.582Z,34.56
2023-04-21T09:10:17.464Z,34.60
2023-04-21T09:11:17.502Z,34.70
2023-04-21T09:12:17.601Z,34.63
2023-04-21T09:13:17.621Z,34.69
2023-04-21T09:14:17.668Z,34.76
2023-04-21T09:15:17.700Z,34.86
2023-04-21T09:16:17.853Z,34.83
2023-04-21T09:17:17.917Z,35.05
2023-04-21T09:18:17.909Z,35.03
2023-04-21T09:19:18.278Z,35.01
2023-04-21T09:20:18.010Z,35.11
2023-04-21T09:21:18.067Z,35.23
2023-04-21T09:22:18.115Z,35.31
2023-04-21T09:23:18.495Z,35.28
2023-04-21T09:24:18.216Z,35.34
2023-04-21T09:25:18.252Z,35.41
2023-04-21T09:26:18.346Z,35.38
2023-04-21T09:27:18.320Z,35.35
2023-04-21T09:28:18.381Z,35.72
2023-04-21T09:29:18.825Z,35.68
2023-04-21T09:30:18.540Z,35.83
2023-04-21T09:31:18.617Z,36.01
2023-04-21T09:32:18.530Z,35.99
2023-04-21T09:33:27.970Z,36.08
2023-04-21T09:34:19.572Z,35.96
2023-04-21T09:35:18.567Z,36.05
2023-04-21T09:36:18.604Z,36.20
2023-04-21T09:37:19.201Z,35.83
2023-04-21T09:38:18.666Z,36.10
2023-04-21T09:39:34.360Z,36.31
2023-04-21T09:40:19.894Z,36.46
2023-04-21T09:41:18.658Z,36.28
2023-04-21T09:42:18.654Z,36.36
2023-04-21T09:43:19.054Z,36.33
2023-04-21T09:44:19.051Z,36.40
2023-04-21T09:46:18.701Z,36.27
2023-04-21T09:47:18.689Z,36.15
2023-04-21T09:48:20.681Z,36.07
2023-04-21T09:49:18.596Z,35.98
2023-04-21T09:50:26.636Z,35.82
2023-04-21T09:51:30.855Z,35.78
2023-04-21T09:52:19.946Z,35.68
2023-04-21T09:53:18.596Z,35.61
2023-04-21T09:54:29.218Z,35.53
2023-04-21T09:55:19.604Z,35.47
2023-04-21T09:56:18.582Z,35.33
2023-04-21T09:57:18.554Z,35.29
2023-04-21T09:58:18.591Z,35.22
2023-04-21T09:59:18.562Z,35.16
2023-04-21T10:00:18.555Z,35.06
2023-04-21T10:01:18.590Z,34.91
2023-04-21T10:02:18.655Z,34.86
2023-04-21T10:03:18.626Z,34.82
2023-04-21T10:04:18.969Z,34.76
2023-04-21T10:05:18.542Z,34.57
2023-04-21T10:06:18.499Z,34.47
2023-04-21T10:07:18.517Z,34.40
2023-04-21T10:08:18.524Z,34.42
2023-04-21T10:09:18.530Z,34.38
2023-04-21T10:10:18.580Z,34.34
2023-04-21T10:11:18.624Z,34.21
2023-04-21T10:12:18.700Z,34.18
2023-04-21T10:13:18.775Z,34.16
2023-04-21T10:14:18.951Z,34.12
2023-04-21T10:15:18.776Z,34.12
2023-04-21T10:16:18.869Z,34.16
2023-04-21T10:17:18.896Z,34.15
2023-04-21T10:18:18.916Z,34.16
2023-04-21T10:19:19.127Z,34.15
2023-04-21T10:20:18.963Z,34.18
2023-04-21T10:21:18.975Z,34.19
2023-04-21T10:22:20.714Z,34.19
2023-04-21T10:23:19.072Z,34.16
2023-04-21T10:24:19.346Z,34.16
2023-04-21T10:25:19.018Z,34.16
2023-04-21T10:26:19.001Z,34.13
2023-04-21T10:27:18.998Z,34.10
2023-04-21T10:28:19.020Z,34.09
2023-04-21T10:29:19.146Z,33.96
2023-04-21T10:30:19.001Z,33.96
2023-04-21T10:31:19.010Z,33.96
2023-04-21T10:32:19.006Z,33.94
2023-04-21T10:33:19.000Z,33.91
2023-04-21T10:34:19.232Z,34.46
2023-04-21T10:35:18.949Z,34.06
2023-04-21T10:36:19.013Z,33.27
2023-04-21T10:37:18.990Z,31.82
2023-04-21T10:38:19.134Z,31.21
2023-04-21T10:39:19.206Z,32.52
2023-04-21T10:40:19.013Z,31.50
2023-04-21T10:41:18.921Z,31.71
2023-04-21T10:42:18.925Z,30.29
2023-04-21T10:43:18.893Z,29.39
2023-04-21T10:44:19.145Z,30.42
2023-04-21T10:45:18.912Z,30.05
2023-04-21T10:46:18.882Z,28.18
2023-04-21T10:47:18.940Z,29.70
2023-04-21T10:48:18.898Z,29.16
2023-04-21T10:49:18.904Z,28.64
2023-04-21T10:50:18.905Z,28.42
2023-04-21T10:51:19.567Z,28.94
2023-04-21T10:52:18.859Z,28.58
2023-04-21T10:53:19.056Z,29.06
2023-04-21T10:54:19.006Z,29.21
2023-04-21T10:55:18.805Z,29.29
2023-04-21T10:56:19.049Z,28.87
2023-04-21T10:57:18.805Z,28.64
2023-04-21T10:58:18.792Z,28.29
2023-04-21T10:59:18.886Z,28.69
2023-04-21T11:00:19.027Z,28.50
2023-04-21T11:01:19.051Z,27.48
2023-04-21T11:02:19.210Z,28.11
2023-04-21T11:03:19.164Z,27.78
2023-04-21T11:04:19.601Z,27.58
2023-04-21T11:05:19.194Z,27.92
2023-04-21T11:06:19.273Z,27.92
2023-04-21T11:07:19.335Z,28.01
2023-04-21T11:08:19.387Z,27.71
2023-04-21T11:09:19.406Z,28.03
2023-04-21T11:10:19.436Z,27.75
2023-04-21T11:11:19.498Z,27.88
2023-04-21T11:12:19.573Z,27.97
2023-04-21T11:13:19.646Z,27.71
2023-04-21T11:14:19.861Z,27.55
2023-04-21T11:15:19.746Z,27.71
2023-04-21T11:16:19.833Z,27.65
2023-04-21T11:17:19.901Z,27.58
2023-04-21T11:18:20.238Z,27.53
2023-04-21T11:19:20.014Z,27.49
2023-04-21T11:20:20.008Z,27.13
2023-04-21T11:21:20.096Z,27.57
2023-04-21T11:22:20.122Z,27.64
2023-04-21T11:23:20.201Z,27.72
2023-04-21T11:24:20.552Z,27.82
2023-04-21T11:25:20.288Z,27.94
2023-04-21T11:26:20.362Z,27.41
2023-04-21T11:27:20.382Z,27.85
2023-04-21T11:28:20.547Z,27.91
2023-04-21T11:29:20.458Z,28.03
2023-04-21T11:30:20.587Z,27.84
2023-04-21T11:31:20.616Z,27.33
2023-04-21T11:32:20.687Z,27.87
2023-04-21T11:33:21.114Z,26.73
2023-04-21T11:34:20.902Z,26.38
2023-04-21T11:35:20.816Z,26.57
2023-04-21T11:36:20.798Z,25.93
2023-04-21T11:37:20.856Z,26.29
2023-04-21T11:38:20.901Z,25.69
2023-04-21T11:39:21.813Z,25.38
2023-04-21T11:40:21.013Z,25.05
2023-04-21T11:41:21.077Z,24.71
2023-04-21T11:42:21.099Z,25.35
2023-04-21T11:43:21.192Z,25.42
2023-04-21T11:44:21.255Z,24.57
2023-04-21T11:45:22.380Z,24.70
2023-04-21T11:46:21.396Z,24.57
2023-04-21T11:47:21.495Z,24.58
2023-04-21T11:48:21.504Z,25.09
2023-04-21T11:49:21.547Z,24.39
2023-04-21T11:50:21.592Z,24.60
2023-04-21T11:51:22.444Z,24.65
2023-04-21T11:52:21.744Z,23.95
2023-04-21T11:53:21.814Z,23.90
2023-04-21T11:54:21.857Z,23.79
2023-04-21T11:55:21.880Z,23.37
2023-04-21T11:56:21.975Z,24.30
2023-04-21T11:57:22.009Z,23.92
2023-04-21T11:58:22.076Z,23.57
2023-04-21T11:59:24.883Z,23.81
2023-04-21T12:00:22.165Z,23.66
2023-04-21T12:01:22.140Z,23.62
2023-04-21T12:02:22.195Z,23.39
2023-04-21T12:03:22.254Z,23.33
2023-04-21T12:04:22.258Z,23.01
2023-04-21T12:05:22.129Z,23.06
2023-04-21T12:06:22.170Z,23.36
2023-04-21T12:07:22.093Z,23.06
2023-04-21T12:08:22.108Z,23.69
2023-04-21T12:09:22.108Z,23.00
2023-04-21T12:10:22.063Z,23.49
2023-04-21T12:11:22.080Z,23.95
2023-04-21T12:12:22.037Z,23.91
2023-04-21T12:13:22.043Z,23.65
2023-04-21T12:14:22.022Z,23.97
2023-04-21T12:15:22.028Z,24.27
2023-04-21T12:16:22.122Z,24.36
2023-04-21T12:17:22.046Z,24.42
2023-04-21T12:18:22.019Z,24.71
2023-04-21T12:19:22.003Z,24.65
2023-04-21T12:20:21.989Z,24.75
2023-04-21T12:21:21.991Z,24.75
2023-04-21T12:22:21.970Z,24.71
2023-04-21T12:23:21.990Z,24.70
2023-04-21T12:24:21.976Z,24.89
2023-04-21T12:25:22.047Z,24.84
2023-04-21T12:26:21.943Z,24.85
2023-04-21T12:27:21.972Z,25.03
2023-04-21T12:28:21.958Z,24.92
2023-04-21T12:29:21.956Z,25.06
2023-04-21T12:30:22.042Z,24.91
2023-04-21T12:31:21.974Z,25.02
2023-04-21T12:32:21.948Z,24.94
2023-04-21T12:33:22.088Z,24.96
2023-04-21T12:34:22.024Z,25.11
2023-04-21T12:35:22.098Z,24.93
2023-04-21T12:36:22.097Z,24.96
2023-04-21T12:37:22.159Z,25.04
2023-04-21T12:38:22.190Z,24.99
2023-04-21T12:39:22.220Z,25.00
2023-04-21T12:40:22.254Z,25.11
2023-04-21T12:41:22.281Z,25.18
2023-04-21T12:42:22.326Z,25.02
2023-04-21T12:43:22.350Z,25.03
2023-04-21T12:44:22.397Z,25.18
2023-04-21T12:45:22.432Z,25.05
2023-04-21T12:46:22.669Z,25.13
2023-04-21T12:47:22.461Z,25.11
2023-04-21T12:48:22.510Z,25.11
2023-04-21T12:49:22.539Z,25.16
2023-04-21T12:50:22.620Z,25.20
2023-04-21T12:51:22.611Z,25.16
2023-04-21T12:52:22.664Z,25.13
2023-04-21T12:53:22.680Z,25.21
2023-04-21T12:54:22.688Z,25.19
2023-04-21T12:55:22.731Z,25.20